Terminal Aerodrome Forecast
Issued by NWS Greer, SC

Home | Current Version | Previous Version | Text Only | Print | Product List | Glossary On
Versions: 1 2 3 4 5 6 7 8 9 10 11 12 13 14 15 16 17 18 19 20 21
000
FTUS42 KGSP 290530
TAFGSP
TAF
KGSP 290530Z 2906/3006 00000KT P6SM FEW250
     FM291500 04004KT P6SM FEW050
     FM291800 15004KT P6SM SCT060
     FM292100 20005KT P6SM VCTS BKN060CB PROB30 2922/3002 4SM TSRA
      BKN040CB
     FM300200 19003KT P6SM BKN250=

USA.gov is the U.S. government's official web portal to all federal, state and local government web resources and services.